Time,TemperatureF,DewpointF,PressureIn,WindDirection,WindDirectionDegrees,WindSpeedMPH,WindSpeedGustMPH,Humidity,HourlyPrecipIn,Conditions,Clouds,dailyrainin,SoftwareType,DateUTC
2013-06-25 00:01:00,69.5,68.6,29.90,West,272,0.0,0.0,97,0.01,,,0.11,WUHU216DAVISVP2,2013-06-25 04:01:00,
2013-06-25 01:21:00,69.0,68.1,29.89,West,272,0.0,0.0,97,0.00,,,0.00,WUHU216DAVISVP2,2013-06-25 05:21:00,
2013-06-25 01:26:00,68.8,67.9,29.89,West,272,0.0,0.0,97,0.00,,,0.00,WUHU216DAVISVP2,2013-06-25 05:26:00,
2013-06-25 01:31:00,68.7,67.8,29.89,West,272,0.0,0.0,97,0.00,,,0.00,WUHU216DAVISVP2,2013-06-25 05:31:00,
2013-06-25 01:36:00,68.7,68.1,29.89,West,272,0.0,0.0,98,0.00,,,0.00,WUHU216DAVISVP2,2013-06-25 05:36:00,
2013-06-25 01:41:00,68.8,68.2,29.89,West,272,1.0,1.0,98,0.00,,,0.00,WUHU216DAVISVP2,2013-06-25 05:41:00,
2013-06-25 01:46:00,68.9,68.3,29.89,West,272,1.3,2.0,98,0.00,,,0.00,WUHU216DAVISVP2,2013-06-25 05:46:00,
2013-06-25 01:51:00,69.0,68.4,29.88,West,271,0.0,3.0,98,0.00,,,0.00,WUHU216DAVISVP2,2013-06-25 05:51:00,
2013-06-25 01:56:00,69.0,68.4,29.88,West,271,0.0,3.0,98,0.00,,,0.00,WUHU216DAVISVP2,2013-06-25 05:56:00,
2013-06-25 02:01:00,69.0,68.4,29.89,West,271,1.0,3.0,98,0.00,,,0.00,WUHU216DAVISVP2,2013-06-25 06:01:00,
2013-06-25 02:06:00,69.0,68.4,29.89,West,271,0.0,2.0,98,0.00,,,0.00,WUHU216DAVISVP2,2013-06-25 06:06:00,
2013-06-25 02:11:00,69.0,68.4,29.88,West,271,0.0,2.0,98,0.00,,,0.00,WUHU216DAVISVP2,2013-06-25 06:11:00,
2013-06-25 02:16:00,69.0,68.4,29.88,West,271,0.0,2.0,98,0.00,,,0.00,WUHU216DAVISVP2,2013-06-25 06:16:00,
2013-06-25 02:21:00,69.0,68.4,29.88,West,271,0.0,1.0,98,0.00,,,0.00,WUHU216DAVISVP2,2013-06-25 06:21:00,
2013-06-25 02:26:00,68.9,68.3,29.88,West,271,0.0,1.0,98,0.00,,,0.00,WUHU216DAVISVP2,2013-06-25 06:26:00,
2013-06-25 02:31:00,68.9,68.3,29.88,West,271,0.0,1.0,98,0.00,,,0.00,WUHU216DAVISVP2,2013-06-25 06:31:00,
2013-06-25 02:36:00,68.8,68.2,29.87,West,271,0.0,0.0,98,0.00,,,0.00,WUHU216DAVISVP2,2013-06-25 06:36:00,
2013-06-25 02:41:00,68.8,68.2,29.87,West,271,0.0,0.0,98,0.00,,,0.00,WUHU216DAVISVP2,2013-06-25 06:41:00,
2013-06-25 02:46:00,68.7,68.1,29.88,West,271,1.0,1.0,98,0.00,,,0.00,WUHU216DAVISVP2,2013-06-25 06:46:00,
2013-06-25 02:51:00,68.7,68.1,29.88,West,271,1.5,2.0,98,0.00,,,0.00,WUHU216DAVISVP2,2013-06-25 06:51:00,
2013-06-25 02:56:00,68.6,68.0,29.88,West,269,1.2,3.0,98,0.00,,,0.00,WUHU216DAVISVP2,2013-06-25 06:56:00,
2013-06-25 03:01:00,68.6,68.0,29.87,West,269,1.0,3.0,98,0.00,,,0.00,WUHU216DAVISVP2,2013-06-25 07:01:00,
2013-06-25 03:06:00,68.5,67.9,29.88,West,269,0.0,3.0,98,0.00,,,0.00,WUHU216DAVISVP2,2013-06-25 07:06:00,
2013-06-25 03:11:00,68.4,67.8,29.88,West,269,0.0,3.0,98,0.00,,,0.00,WUHU216DAVISVP2,2013-06-25 07:11:00,
2013-06-25 03:16:00,68.3,67.4,29.88,West,269,0.0,1.0,97,0.00,,,0.00,WUHU216DAVISVP2,2013-06-25 07:16:00,
2013-06-25 03:21:00,68.3,67.4,29.87,West,269,0.0,1.0,97,0.00,,,0.00,WUHU216DAVISVP2,2013-06-25 07:21:00,
2013-06-25 03:26:00,68.1,67.2,29.87,West,269,0.0,1.0,97,0.00,,,0.00,WUHU216DAVISVP2,2013-06-25 07:26:00,
2013-06-25 03:31:00,68.0,67.1,29.87,West,269,0.0,1.0,97,0.00,,,0.00,WUHU216DAVISVP2,2013-06-25 07:31:00,
2013-06-25 03:36:00,67.9,67.3,29.88,West,269,0.0,1.0,98,0.00,,,0.00,WUHU216DAVISVP2,2013-06-25 07:36:00,
2013-06-25 03:41:00,67.9,67.3,29.88,West,269,1.6,3.0,98,0.00,,,0.00,WUHU216DAVISVP2,2013-06-25 07:41:00,
2013-06-25 03:46:00,67.8,67.2,29.88,West,269,0.0,3.0,98,0.00,,,0.00,WUHU216DAVISVP2,2013-06-25 07:46:00,
2013-06-25 03:51:00,67.8,67.2,29.88,West,269,0.0,3.0,98,0.00,,,0.00,WUHU216DAVISVP2,2013-06-25 07:51:00,
2013-06-25 03:56:00,67.7,66.8,29.88,West,269,0.0,3.0,97,0.00,,,0.00,WUHU216DAVISVP2,2013-06-25 07:56:00,
2013-06-25 04:01:00,67.7,66.8,29.88,West,269,0.0,1.0,97,0.00,,,0.00,WUHU216DAVISVP2,2013-06-25 08:01:00,
2013-06-25 04:06:00,67.6,66.7,29.88,West,269,0.0,1.0,97,0.00,,,0.00,WUHU216DAVISVP2,2013-06-25 08:06:00,
2013-06-25 04:11:00,67.4,66.5,29.88,West,269,0.0,1.0,97,0.00,,,0.00,WUHU216DAVISVP2,2013-06-25 08:11:00,
2013-06-25 04:16:00,67.4,66.5,29.88,West,269,0.0,1.0,97,0.00,,,0.00,WUHU216DAVISVP2,2013-06-25 08:16:00,
2013-06-25 04:21:00,67.3,66.4,29.88,West,269,0.0,1.0,97,0.00,,,0.00,WUHU216DAVISVP2,2013-06-25 08:21:00,
2013-06-25 04:26:00,67.2,66.6,29.88,West,269,0.0,1.0,98,0.00,,,0.00,WUHU216DAVISVP2,2013-06-25 08:26:00,
2013-06-25 04:31:00,67.2,66.6,29.88,West,269,0.0,1.0,98,0.00,,,0.00,WUHU216DAVISVP2,2013-06-25 08:31:00,
2013-06-25 04:36:00,67.1,66.5,29.88,West,269,0.0,1.0,98,0.00,,,0.00,WUHU216DAVISVP2,2013-06-25 08:36:00,
2013-06-25 04:41:00,67.0,66.1,29.88,West,269,0.0,1.0,97,0.00,,,0.00,WUHU216DAVISVP2,2013-06-25 08:41:00,
2013-06-25 04:46:00,66.9,66.0,29.88,West,269,0.0,1.0,97,0.00,,,0.00,WUHU216DAVISVP2,2013-06-25 08:46:00,
2013-06-25 04:51:00,66.9,66.3,29.88,West,269,1.5,2.0,98,0.00,,,0.00,WUHU216DAVISVP2,2013-06-25 08:51:00,
2013-06-25 04:56:00,66.9,66.3,29.88,West,269,0.0,2.0,98,0.00,,,0.00,WUHU216DAVISVP2,2013-06-25 08:56:00,
2013-06-25 05:01:00,66.9,66.3,29.88,West,269,0.0,2.0,98,0.00,,,0.00,WUHU216DAVISVP2,2013-06-25 09:01:00,
2013-06-25 05:06:00,66.9,66.3,29.88,West,269,0.0,2.0,98,0.00,,,0.00,WUHU216DAVISVP2,2013-06-25 09:06:00,
2013-06-25 05:11:00,66.8,66.2,29.88,West,269,0.0,1.0,98,0.00,,,0.00,WUHU216DAVISVP2,2013-06-25 09:11:00,
2013-06-25 05:16:00,66.8,66.2,29.88,West,269,0.0,1.0,98,0.00,,,0.00,WUHU216DAVISVP2,2013-06-25 09:16:00,
2013-06-25 05:21:00,66.7,66.1,29.88,West,269,0.0,1.0,98,0.00,,,0.00,WUHU216DAVISVP2,2013-06-25 09:21:00,
2013-06-25 05:26:00,66.7,66.1,29.88,West,269,1.5,2.0,98,0.00,,,0.00,WUHU216DAVISVP2,2013-06-25 09:26:00,
2013-06-25 05:31:00,66.7,66.1,29.88,West,269,0.0,2.0,98,0.00,,,0.00,WUHU216DAVISVP2,2013-06-25 09:31:00,
2013-06-25 05:36:00,66.7,66.1,29.88,West,269,0.0,2.0,98,0.00,,,0.00,WUHU216DAVISVP2,2013-06-25 09:36:00,
2013-06-25 05:41:00,66.6,66.0,29.88,West,269,0.0,2.0,98,0.00,,,0.00,WUHU216DAVISVP2,2013-06-25 09:41:00,
2013-06-25 05:46:00,66.6,66.0,29.88,West,269,0.0,1.0,98,0.00,,,0.00,WUHU216DAVISVP2,2013-06-25 09:46:00,
2013-06-25 05:51:00,66.7,66.1,29.88,West,269,0.0,1.0,98,0.00,,,0.00,WUHU216DAVISVP2,2013-06-25 09:51:00,
2013-06-25 05:56:00,66.7,66.1,29.88,West,269,2.0,2.0,98,0.00,,,0.00,WUHU216DAVISVP2,2013-06-25 09:56:00,
2013-06-25 06:01:00,66.8,66.2,29.88,West,269,0.0,2.0,98,0.00,,,0.00,WUHU216DAVISVP2,2013-06-25 10:01:00,
2013-06-25 06:06:00,66.9,66.3,29.88,West,269,0.0,2.0,98,0.00,,,0.00,WUHU216DAVISVP2,2013-06-25 10:06:00,
2013-06-25 06:11:00,67.0,66.4,29.88,West,261,1.0,5.0,98,0.00,,,0.00,WUHU216DAVISVP2,2013-06-25 10:11:00,
2013-06-25 06:16:00,67.1,66.5,29.88,West,261,0.0,5.0,98,0.00,,,0.00,WUHU216DAVISVP2,2013-06-25 10:16:00,
2013-06-25 06:21:00,67.2,66.6,29.87,West,261,0.0,5.0,98,0.00,,,0.00,WUHU216DAVISVP2,2013-06-25 10:21:00,
2013-06-25 06:26:00,67.4,66.8,29.87,West,261,0.0,5.0,98,0.00,,,0.00,WUHU216DAVISVP2,2013-06-25 10:26:00,
2013-06-25 06:31:00,67.6,66.7,29.87,West,261,1.0,4.0,97,0.00,,,0.00,WUHU216DAVISVP2,2013-06-25 10:31:00,
2013-06-25 06:36:00,67.7,66.8,29.87,West,261,1.0,3.0,97,0.00,,,0.00,WUHU216DAVISVP2,2013-06-25 10:36:00,
2013-06-25 06:41:00,67.9,67.0,29.87,West,261,1.0,3.0,97,0.00,,,0.00,WUHU216DAVISVP2,2013-06-25 10:41:00,
2013-06-25 06:46:00,68.1,67.2,29.87,West,261,0.0,2.0,97,0.00,,,0.00,WUHU216DAVISVP2,2013-06-25 10:46:00,
2013-06-25 06:51:00,68.4,67.5,29.87,West,261,0.0,2.0,97,0.00,,,0.00,WUHU216DAVISVP2,2013-06-25 10:51:00,
2013-06-25 06:56:00,68.6,67.7,29.87,WSW,254,2.0,4.0,97,0.00,,,0.00,WUHU216DAVISVP2,2013-06-25 10:56:00,
2013-06-25 07:01:00,68.9,67.7,29.87,WSW,254,0.0,4.0,96,0.00,,,0.00,WUHU216DAVISVP2,2013-06-25 11:01:00,
2013-06-25 07:06:00,69.2,67.7,29.87,WSW,254,0.0,4.0,95,0.00,,,0.00,WUHU216DAVISVP2,2013-06-25 11:06:00,
2013-06-25 07:11:00,69.5,68.0,29.87,WSW,254,0.0,4.0,95,0.00,,,0.00,WUHU216DAVISVP2,2013-06-25 11:11:00,
2013-06-25 07:16:00,69.8,68.0,29.87,WSW,254,0.0,1.0,94,0.00,,,0.00,WUHU216DAVISVP2,2013-06-25 11:16:00,
2013-06-25 07:21:00,70.0,68.2,29.87,WSW,254,0.0,0.0,94,0.00,,,0.00,WUHU216DAVISVP2,2013-06-25 11:21:00,
2013-06-25 07:26:00,70.2,68.4,29.87,WSW,254,0.0,1.0,94,0.00,,,0.00,WUHU216DAVISVP2,2013-06-25 11:26:00,
2013-06-25 07:31:00,70.5,68.4,29.87,WSW,254,0.0,1.0,93,0.00,,,0.00,WUHU216DAVISVP2,2013-06-25 11:31:00,
2013-06-25 07:36:00,71.0,69.2,29.87,WSW,254,0.0,1.0,94,0.00,,,0.00,WUHU216DAVISVP2,2013-06-25 11:36:00,
2013-06-25 07:41:00,71.4,69.2,29.87,WSW,254,0.0,1.0,93,0.00,,,0.00,WUHU216DAVISVP2,2013-06-25 11:41:00,
2013-06-25 07:46:00,71.7,68.6,29.87,WSW,254,0.0,1.0,90,0.00,,,0.00,WUHU216DAVISVP2,2013-06-25 11:46:00,
2013-06-25 07:51:00,72.1,69.0,29.87,WSW,254,0.0,1.0,90,0.00,,,0.00,WUHU216DAVISVP2,2013-06-25 11:51:00,
2013-06-25 07:56:00,72.5,69.4,29.87,WSW,254,0.0,1.0,90,0.00,,,0.00,WUHU216DAVISVP2,2013-06-25 11:56:00,
2013-06-25 08:01:00,72.9,69.8,29.87,WSW,254,0.0,1.0,90,0.00,,,0.00,WUHU216DAVISVP2,2013-06-25 12:01:00,
2013-06-25 08:06:00,73.4,70.0,29.87,WSW,254,0.0,0.0,89,0.00,,,0.00,WUHU216DAVISVP2,2013-06-25 12:06:00,
2013-06-25 08:11:00,73.8,69.4,29.87,WSW,254,1.3,2.0,86,0.00,,,0.00,WUHU216DAVISVP2,2013-06-25 12:11:00,
2013-06-25 08:16:00,74.3,69.8,29.86,WSW,254,1.0,2.0,86,0.00,,,0.00,WUHU216DAVISVP2,2013-06-25 12:16:00,
2013-06-25 08:21:00,74.8,69.4,29.86,WSW,254,1.0,3.0,83,0.00,,,0.00,WUHU216DAVISVP2,2013-06-25 12:21:00,
2013-06-25 08:26:00,75.4,70.3,29.87,WSW,254,1.0,3.0,84,0.00,,,0.00,WUHU216DAVISVP2,2013-06-25 12:26:00,
2013-06-25 08:31:00,75.8,70.3,29.87,WSW,254,1.7,3.0,83,0.00,,,0.00,WUHU216DAVISVP2,2013-06-25 12:31:00,
2013-06-25 08:37:00,76.3,70.0,29.87,WSW,254,2.0,4.0,81,0.00,,,0.00,WUHU216DAVISVP2,2013-06-25 12:37:00,
2013-06-25 08:42:00,76.8,69.8,29.87,WSW,254,1.3,4.0,79,0.00,,,0.00,WUHU216DAVISVP2,2013-06-25 12:42:00,
2013-06-25 08:47:00,77.1,70.2,29.87,WSW,254,1.4,4.0,79,0.00,,,0.00,WUHU216DAVISVP2,2013-06-25 12:47:00,
2013-06-25 08:52:00,77.6,70.7,29.86,WSW,254,2.0,5.0,79,0.00,,,0.00,WUHU216DAVISVP2,2013-06-25 12:52:00,
2013-06-25 08:57:00,77.9,70.3,29.86,SW,229,2.7,5.0,77,0.00,,,0.00,WUHU216DAVISVP2,2013-06-25 12:57:00,
2013-06-25 09:02:00,78.1,70.4,29.86,SW,223,1.8,6.0,77,0.00,,,0.00,WUHU216DAVISVP2,2013-06-25 13:02:00,
2013-06-25 09:07:00,78.4,70.0,29.86,SW,216,2.0,6.0,75,0.00,,,0.00,WUHU216DAVISVP2,2013-06-25 13:07:00,
2013-06-25 09:12:00,78.7,71.0,29.86,SSW,203,2.2,6.0,77,0.00,,,0.00,WUHU216DAVISVP2,2013-06-25 13:12:00,
2013-06-25 09:17:00,79.0,70.9,29.85,WSW,255,5.0,6.0,76,0.00,,,0.00,WUHU216DAVISVP2,2013-06-25 13:17:00,
2013-06-25 09:22:00,79.1,70.3,29.85,WSW,252,2.0,6.0,74,0.00,,,0.00,WUHU216DAVISVP2,2013-06-25 13:22:00,
2013-06-25 09:27:00,79.6,71.2,29.85,WSW,240,5.0,6.0,75,0.00,,,0.00,WUHU216DAVISVP2,2013-06-25 13:27:00,
2013-06-25 09:32:00,79.9,70.9,29.85,SW,232,2.0,6.0,74,0.00,,,0.00,WUHU216DAVISVP2,2013-06-25 13:32:00,
2013-06-25 09:37:00,80.3,70.4,29.85,SW,232,2.0,6.0,72,0.00,,,0.00,WUHU216DAVISVP2,2013-06-25 13:37:00,
2013-06-25 09:42:00,80.6,70.3,29.85,WSW,251,2.5,6.0,71,0.00,,,0.00,WUHU216DAVISVP2,2013-06-25 13:42:00,
2013-06-25 09:47:00,80.7,70.6,29.85,WSW,246,1.9,5.0,71,0.00,,,0.00,WUHU216DAVISVP2,2013-06-25 13:47:00,
2013-06-25 09:52:00,80.9,71.4,29.85,WNW,292,3.0,5.0,73,0.00,,,0.00,WUHU216DAVISVP2,2013-06-25 13:52:00,
2013-06-25 09:57:00,81.1,70.6,29.85,NW,305,3.1,5.0,70,0.00,,,0.00,WUHU216DAVISVP2,2013-06-25 13:57:00,
2013-06-25 10:02:00,81.4,71.7,29.85,SW,222,3.0,5.0,72,0.00,,,0.00,WUHU216DAVISVP2,2013-06-25 14:02:00,
2013-06-25 10:07:00,81.7,72.0,29.84,WSW,241,3.0,6.0,72,0.00,,,0.00,WUHU216DAVISVP2,2013-06-25 14:07:00,
2013-06-25 10:12:00,81.7,71.6,29.84,WNW,290,3.0,6.0,71,0.00,,,0.00,WUHU216DAVISVP2,2013-06-25 14:12:00,
2013-06-25 10:17:00,82.0,73.5,29.85,WNW,289,2.0,6.0,75,0.00,,,0.00,WUHU216DAVISVP2,2013-06-25 14:17:00,
2013-06-25 10:22:00,82.5,72.4,29.85,SSW,193,1.5,6.0,71,0.00,,,0.00,WUHU216DAVISVP2,2013-06-25 14:22:00,
2013-06-25 10:27:00,82.7,71.7,29.85,WSW,246,5.1,8.0,69,0.00,,,0.00,WUHU216DAVISVP2,2013-06-25 14:27:00,
2013-06-25 10:32:00,82.6,72.9,29.86,WSW,245,1.7,8.0,72,0.00,,,0.00,WUHU216DAVISVP2,2013-06-25 14:32:00,
2013-06-25 10:37:00,82.8,73.1,29.86,WNW,286,1.9,8.0,72,0.00,,,0.00,WUHU216DAVISVP2,2013-06-25 14:37:00,
2013-06-25 10:42:00,83.3,72.3,29.86,WSW,249,2.8,8.0,69,0.00,,,0.00,WUHU216DAVISVP2,2013-06-25 14:42:00,
2013-06-25 10:47:00,83.4,72.0,29.86,SW,235,5.4,8.0,68,0.00,,,0.00,WUHU216DAVISVP2,2013-06-25 14:47:00,
2013-06-25 10:52:00,83.4,72.4,29.86,SW,235,4.1,8.0,69,0.00,,,0.00,WUHU216DAVISVP2,2013-06-25 14:52:00,
2013-06-25 10:57:00,83.5,73.7,29.86,West,260,2.9,10.0,72,0.00,,,0.00,WUHU216DAVISVP2,2013-06-25 14:57:00,
2013-06-25 11:02:00,83.7,73.1,29.86,SW,233,3.0,10.0,70,0.00,,,0.00,WUHU216DAVISVP2,2013-06-25 15:02:00,
2013-06-25 11:07:00,83.9,73.3,29.87,SW,218,5.0,10.0,70,0.00,,,0.00,WUHU216DAVISVP2,2013-06-25 15:07:00,
2013-06-25 11:12:00,84.0,73.4,29.87,WSW,237,2.2,7.0,70,0.00,,,0.00,WUHU216DAVISVP2,2013-06-25 15:12:00,
2013-06-25 11:17:00,84.5,73.0,29.86,WSW,247,5.0,7.0,68,0.00,,,0.00,WUHU216DAVISVP2,2013-06-25 15:17:00,
2013-06-25 11:22:00,84.2,72.3,29.86,WNW,285,5.4,11.0,67,0.00,,,0.00,WUHU216DAVISVP2,2013-06-25 15:22:00,
2013-06-25 11:27:00,84.1,74.7,29.85,WSW,243,4.0,11.0,73,0.00,,,0.00,WUHU216DAVISVP2,2013-06-25 15:27:00,
2013-06-25 11:32:00,84.3,72.4,29.85,WNW,295,4.8,11.0,67,0.00,,,0.00,WUHU216DAVISVP2,2013-06-25 15:32:00,
2013-06-25 11:37:00,84.5,74.3,29.85,SSW,209,3.0,11.0,71,0.00,,,0.00,WUHU216DAVISVP2,2013-06-25 15:37:00,
2013-06-25 11:42:00,84.7,72.4,29.85,SW,222,2.2,8.0,66,0.00,,,0.00,WUHU216DAVISVP2,2013-06-25 15:42:00,
2013-06-25 11:47:00,85.0,73.5,29.85,SW,214,2.4,8.0,68,0.00,,,0.00,WUHU216DAVISVP2,2013-06-25 15:47:00,
2013-06-25 11:52:00,84.9,73.0,29.85,WNW,296,7.0,7.0,67,0.00,,,0.00,WUHU216DAVISVP2,2013-06-25 15:52:00,
2013-06-25 11:57:00,84.7,72.8,29.85,West,269,4.2,15.0,67,0.00,,,0.00,WUHU216DAVISVP2,2013-06-25 15:57:00,
2013-06-25 12:02:00,84.9,74.3,29.85,West,266,3.0,15.0,70,0.00,,,0.00,WUHU216DAVISVP2,2013-06-25 16:02:00,
2013-06-25 12:07:00,85.2,72.4,29.85,WNW,284,4.2,15.0,65,0.00,,,0.00,WUHU216DAVISVP2,2013-06-25 16:07:00,
2013-06-25 12:12:00,85.5,72.7,29.85,West,260,3.0,11.0,65,0.00,,,0.00,WUHU216DAVISVP2,2013-06-25 16:12:00,
2013-06-25 12:17:00,85.7,73.3,29.84,WSW,237,4.7,14.0,66,0.00,,,0.00,WUHU216DAVISVP2,2013-06-25 16:17:00,
2013-06-25 12:22:00,85.6,72.5,29.84,West,273,6.0,14.0,65,0.00,,,0.00,WUHU216DAVISVP2,2013-06-25 16:22:00,
2013-06-25 12:27:00,85.5,72.4,29.84,WNW,282,4.1,14.0,65,0.00,,,0.00,WUHU216DAVISVP2,2013-06-25 16:27:00,
2013-06-25 12:32:00,85.8,74.0,29.84,WSW,240,3.0,14.0,68,0.00,,,0.00,WUHU216DAVISVP2,2013-06-25 16:32:00,
2013-06-25 12:37:00,85.8,74.0,29.84,SW,232,3.0,13.0,68,0.00,,,0.00,WUHU216DAVISVP2,2013-06-25 16:37:00,
2013-06-25 12:42:00,85.7,73.0,29.83,West,267,3.0,9.0,66,0.00,,,0.00,WUHU216DAVISVP2,2013-06-25 16:42:00,
2013-06-25 12:47:00,86.3,75.4,29.83,SW,221,3.0,9.0,70,0.00,,,0.00,WUHU216DAVISVP2,2013-06-25 16:47:00,
2013-06-25 12:52:00,86.7,74.4,29.83,West,266,2.2,7.0,67,0.00,,,0.00,WUHU216DAVISVP2,2013-06-25 16:52:00,
2013-06-25 12:57:00,87.0,73.2,29.83,WSW,246,4.2,10.0,63,0.00,,,0.00,WUHU216DAVISVP2,2013-06-25 16:57:00,
2013-06-25 13:02:00,87.1,73.7,29.83,West,267,7.0,10.0,64,0.00,,,0.00,WUHU216DAVISVP2,2013-06-25 17:02:00,
2013-06-25 13:07:00,87.2,73.4,29.82,NW,318,5.0,11.0,63,0.00,,,0.00,WUHU216DAVISVP2,2013-06-25 17:07:00,
2013-06-25 13:12:00,87.1,72.8,29.82,West,277,3.6,11.0,62,0.00,,,0.00,WUHU216DAVISVP2,2013-06-25 17:12:00,
2013-06-25 13:17:00,87.4,74.9,29.82,WSW,257,2.1,11.0,66,0.00,,,0.00,WUHU216DAVISVP2,2013-06-25 17:17:00,
2013-06-25 13:22:00,87.3,73.5,29.82,West,271,4.1,10.0,63,0.00,,,0.00,WUHU216DAVISVP2,2013-06-25 17:22:00,
2013-06-25 13:27:00,87.7,75.7,29.81,WSW,254,3.0,9.0,67,0.00,,,0.00,WUHU216DAVISVP2,2013-06-25 17:27:00,
2013-06-25 13:32:00,88.0,72.7,29.81,SW,216,9.0,12.0,60,0.00,,,0.00,WUHU216DAVISVP2,2013-06-25 17:32:00,
2013-06-25 13:37:00,88.0,73.2,29.81,WSW,240,5.0,12.0,61,0.00,,,0.00,WUHU216DAVISVP2,2013-06-25 17:37:00,
2013-06-25 13:42:00,88.4,74.0,29.80,WNW,284,4.1,12.0,62,0.00,,,0.00,WUHU216DAVISVP2,2013-06-25 17:42:00,
2013-06-25 13:47:00,87.9,72.1,29.80,West,261,3.5,12.0,59,0.00,,,0.00,WUHU216DAVISVP2,2013-06-25 17:47:00,
2013-06-25 13:52:00,88.3,72.4,29.80,WSW,252,4.0,11.0,59,0.00,,,0.00,WUHU216DAVISVP2,2013-06-25 17:52:00,
2013-06-25 13:57:00,88.7,72.3,29.80,SW,234,5.3,11.0,58,0.00,,,0.00,WUHU216DAVISVP2,2013-06-25 17:57:00,
2013-06-25 14:02:00,88.7,71.2,29.80,SW,226,6.0,11.0,56,0.00,,,0.00,WUHU216DAVISVP2,2013-06-25 18:02:00,
2013-06-25 14:07:00,88.5,72.1,29.79,West,259,1.9,10.0,58,0.00,,,0.00,WUHU216DAVISVP2,2013-06-25 18:07:00,
2013-06-25 14:12:00,89.0,74.1,29.79,West,278,1.6,10.0,61,0.00,,,0.00,WUHU216DAVISVP2,2013-06-25 18:12:00,
2013-06-25 14:17:00,89.3,72.3,29.79,WSW,253,2.3,10.0,57,0.00,,,0.00,WUHU216DAVISVP2,2013-06-25 18:17:00,
2013-06-25 14:22:00,89.2,73.5,29.78,SE,134,8.0,11.0,60,0.00,,,0.00,WUHU216DAVISVP2,2013-06-25 18:22:00,
2013-06-25 14:27:00,89.1,72.9,29.79,SSW,200,5.0,11.0,59,0.00,,,0.00,WUHU216DAVISVP2,2013-06-25 18:27:00,
2013-06-25 14:32:00,89.1,71.4,29.78,WSW,245,6.0,11.0,56,0.00,,,0.00,WUHU216DAVISVP2,2013-06-25 18:32:00,
2013-06-25 14:37:00,89.1,72.7,29.78,NW,312,5.0,11.0,58,0.00,,,0.00,WUHU216DAVISVP2,2013-06-25 18:37:00,
2013-06-25 14:42:00,89.1,72.2,29.78,SSW,201,3.8,11.0,57,0.00,,,0.00,WUHU216DAVISVP2,2013-06-25 18:42:00,
2013-06-25 14:47:00,89.1,72.7,29.77,South,188,3.6,10.0,58,0.00,,,0.00,WUHU216DAVISVP2,2013-06-25 18:47:00,
2013-06-25 14:52:00,89.1,72.2,29.77,South,177,3.8,8.0,57,0.00,,,0.00,WUHU216DAVISVP2,2013-06-25 18:52:00,
2013-06-25 14:57:00,89.2,73.3,29.77,SSW,200,4.1,9.0,59,0.00,,,0.00,WUHU216DAVISVP2,2013-06-25 18:57:00,
2013-06-25 15:02:00,89.1,72.7,29.77,South,188,4.4,10.0,58,0.00,,,0.00,WUHU216DAVISVP2,2013-06-25 19:02:00,
2013-06-25 15:07:00,89.2,72.8,29.77,SSW,202,4.0,10.0,58,0.00,,,0.00,WUHU216DAVISVP2,2013-06-25 19:07:00,
2013-06-25 15:12:00,89.2,73.5,29.76,SSE,163,3.0,11.0,60,0.00,,,0.00,WUHU216DAVISVP2,2013-06-25 19:12:00,
2013-06-25 15:17:00,89.6,72.9,29.75,SSW,201,3.2,11.0,58,0.00,,,0.00,WUHU216DAVISVP2,2013-06-25 19:17:00,
2013-06-25 15:22:00,89.3,71.5,29.75,WSW,242,4.3,11.0,56,0.00,,,0.00,WUHU216DAVISVP2,2013-06-25 19:22:00,
2013-06-25 15:27:00,88.8,71.1,29.75,WSW,248,5.7,12.0,56,0.00,,,0.00,WUHU216DAVISVP2,2013-06-25 19:27:00,
2013-06-25 15:32:00,88.8,71.6,29.76,South,184,5.0,12.0,57,0.00,,,0.00,WUHU216DAVISVP2,2013-06-25 19:32:00,
2013-06-25 15:37:00,89.0,72.6,29.75,South,191,6.0,12.0,58,0.00,,,0.00,WUHU216DAVISVP2,2013-06-25 19:37:00,
2013-06-25 15:42:00,89.1,73.7,29.75,SSW,193,4.8,12.0,60,0.00,,,0.00,WUHU216DAVISVP2,2013-06-25 19:42:00,
2013-06-25 15:47:00,89.2,72.8,29.75,SSE,168,6.0,12.0,58,0.00,,,0.00,WUHU216DAVISVP2,2013-06-25 19:47:00,
2013-06-25 15:52:00,89.2,73.3,29.74,SSE,163,2.0,13.0,59,0.00,,,0.00,WUHU216DAVISVP2,2013-06-25 19:52:00,
2013-06-25 15:57:00,89.3,71.8,29.74,South,188,4.9,13.0,56,0.00,,,0.00,WUHU216DAVISVP2,2013-06-25 19:57:00,
2013-06-25 16:02:00,89.2,73.3,29.74,SSW,213,6.0,13.0,59,0.00,,,0.00,WUHU216DAVISVP2,2013-06-25 20:02:00,
2013-06-25 16:07:00,89.2,72.8,29.74,South,190,4.2,12.0,58,0.00,,,0.00,WUHU216DAVISVP2,2013-06-25 20:07:00,
2013-06-25 16:12:00,89.2,73.3,29.73,SSW,194,3.2,12.0,59,0.00,,,0.00,WUHU216DAVISVP2,2013-06-25 20:12:00,
2013-06-25 16:17:00,89.1,73.2,29.73,West,276,6.0,12.0,59,0.00,,,0.00,WUHU216DAVISVP2,2013-06-25 20:17:00,
2013-06-25 16:22:00,89.0,71.5,29.73,South,178,5.5,16.0,56,0.00,,,0.00,WUHU216DAVISVP2,2013-06-25 20:22:00,
2013-06-25 16:27:00,89.1,72.7,29.73,SSE,166,10.0,16.0,58,0.00,,,0.00,WUHU216DAVISVP2,2013-06-25 20:27:00,
2013-06-25 16:32:00,89.1,71.6,29.73,SW,229,6.9,16.0,56,0.00,,,0.00,WUHU216DAVISVP2,2013-06-25 20:32:00,
2013-06-25 16:37:00,89.1,73.2,29.73,SW,228,4.2,16.0,59,0.00,,,0.00,WUHU216DAVISVP2,2013-06-25 20:37:00,
2013-06-25 16:42:00,89.1,72.2,29.73,WSW,245,2.5,12.0,57,0.00,,,0.00,WUHU216DAVISVP2,2013-06-25 20:42:00,
2013-06-25 16:47:00,89.2,71.7,29.73,WSW,240,5.1,12.0,56,0.00,,,0.00,WUHU216DAVISVP2,2013-06-25 20:47:00,
2013-06-25 16:52:00,89.4,72.4,29.73,South,190,3.4,12.0,57,0.00,,,0.00,WUHU216DAVISVP2,2013-06-25 20:52:00,
2013-06-25 16:57:00,89.6,73.1,29.73,SSE,161,6.0,12.0,58,0.00,,,0.00,WUHU216DAVISVP2,2013-06-25 20:57:00,
2013-06-25 17:02:00,89.8,72.3,29.73,South,183,4.0,12.0,56,0.00,,,0.00,WUHU216DAVISVP2,2013-06-25 21:02:00,
2013-06-25 17:07:00,89.5,72.5,29.73,West,262,7.0,12.0,57,0.00,,,0.00,WUHU216DAVISVP2,2013-06-25 21:07:00,
2013-06-25 17:12:00,88.8,72.4,29.74,SSW,206,2.6,11.0,58,0.00,,,0.00,WUHU216DAVISVP2,2013-06-25 21:12:00,
2013-06-25 17:17:00,88.0,71.1,29.74,SSW,212,4.2,11.0,57,0.00,,,0.00,WUHU216DAVISVP2,2013-06-25 21:17:00,
2013-06-25 17:22:00,87.5,71.7,29.73,SSW,207,5.0,12.0,59,0.00,,,0.00,WUHU216DAVISVP2,2013-06-25 21:22:00,
2013-06-25 17:27:00,87.2,72.4,29.73,WSW,240,2.9,12.0,61,0.00,,,0.00,WUHU216DAVISVP2,2013-06-25 21:27:00,
2013-06-25 17:32:00,86.9,72.6,29.73,WSW,251,1.5,12.0,62,0.00,,,0.00,WUHU216DAVISVP2,2013-06-25 21:32:00,
2013-06-25 17:37:00,86.8,72.0,29.73,SW,217,2.7,12.0,61,0.00,,,0.00,WUHU216DAVISVP2,2013-06-25 21:37:00,
2013-06-25 17:42:00,86.8,72.0,29.72,SSW,193,1.9,9.0,61,0.00,,,0.00,WUHU216DAVISVP2,2013-06-25 21:42:00,
2013-06-25 17:47:00,86.7,71.6,29.71,WSW,248,4.0,5.0,61,0.00,,,0.00,WUHU216DAVISVP2,2013-06-25 21:47:00,
2013-06-25 17:52:00,86.5,72.2,29.71,SW,220,3.0,7.0,62,0.00,,,0.00,WUHU216DAVISVP2,2013-06-25 21:52:00,
2013-06-25 17:57:00,86.2,71.9,29.71,SW,220,0.0,7.0,62,0.00,,,0.00,WUHU216DAVISVP2,2013-06-25 21:57:00,
2013-06-25 18:02:00,86.0,71.5,29.71,SW,220,1.3,7.0,62,0.00,,,0.00,WUHU216DAVISVP2,2013-06-25 22:02:00,
2013-06-25 18:07:00,85.9,72.1,29.71,SW,220,0.0,7.0,63,0.00,,,0.00,WUHU216DAVISVP2,2013-06-25 22:07:00,
2013-06-25 18:12:00,85.8,72.5,29.71,SW,220,4.0,4.0,64,0.00,,,0.00,WUHU216DAVISVP2,2013-06-25 22:12:00,
2013-06-25 18:17:00,85.8,72.5,29.71,SW,219,1.7,5.0,64,0.00,,,0.00,WUHU216DAVISVP2,2013-06-25 22:17:00,
2013-06-25 18:22:00,85.6,71.8,29.71,SW,219,2.4,5.0,63,0.00,,,0.00,WUHU216DAVISVP2,2013-06-25 22:22:00,
2013-06-25 18:27:00,85.5,72.2,29.71,SW,219,1.0,5.0,64,0.00,,,0.00,WUHU216DAVISVP2,2013-06-25 22:27:00,
2013-06-25 18:32:00,85.4,72.1,29.71,SW,218,1.8,4.0,64,0.00,,,0.00,WUHU216DAVISVP2,2013-06-25 22:32:00,
2013-06-25 18:37:00,85.3,72.9,29.70,SSW,193,3.0,5.0,66,0.00,,,0.00,WUHU216DAVISVP2,2013-06-25 22:37:00,
2013-06-25 18:42:00,85.2,71.6,29.71,South,189,2.3,5.0,64,0.00,,,0.00,WUHU216DAVISVP2,2013-06-25 22:42:00,
2013-06-25 18:47:00,85.2,71.9,29.71,SSW,197,1.5,8.0,64,0.00,,,0.00,WUHU216DAVISVP2,2013-06-25 22:47:00,
2013-06-25 18:52:00,85.1,72.3,29.71,South,188,0.0,8.0,65,0.00,,,0.00,WUHU216DAVISVP2,2013-06-25 22:52:00,
2013-06-25 18:57:00,85.0,72.2,29.71,South,188,1.0,7.0,65,0.00,,,0.00,WUHU216DAVISVP2,2013-06-25 22:57:00,
2013-06-25 19:02:00,84.8,72.4,29.71,SSW,202,0.0,7.0,66,0.00,,,0.00,WUHU216DAVISVP2,2013-06-25 23:02:00,
2013-06-25 19:07:00,84.8,72.9,29.71,SSW,202,1.5,4.0,67,0.00,,,0.00,WUHU216DAVISVP2,2013-06-25 23:07:00,
2013-06-25 19:12:00,84.6,72.3,29.71,SSW,197,2.8,7.0,66,0.00,,,0.00,WUHU216DAVISVP2,2013-06-25 23:12:00,
2013-06-25 19:17:00,84.6,72.7,29.70,SSW,211,2.0,7.0,67,0.00,,,0.00,WUHU216DAVISVP2,2013-06-25 23:17:00,
2013-06-25 19:22:00,84.4,72.1,29.70,SW,223,1.0,7.0,66,0.00,,,0.00,WUHU216DAVISVP2,2013-06-25 23:22:00,
2013-06-25 19:27:00,84.4,72.1,29.70,South,190,1.5,7.0,66,0.00,,,0.00,WUHU216DAVISVP2,2013-06-25 23:27:00,
2013-06-25 19:32:00,84.1,72.2,29.72,SW,225,7.0,10.0,67,0.00,,,0.00,WUHU216DAVISVP2,2013-06-25 23:32:00,
2013-06-25 19:37:00,82.0,71.5,29.71,WSW,238,4.4,13.0,70,0.02,,,0.02,WUHU216DAVISVP2,2013-06-25 23:37:00,
2013-06-25 19:42:00,79.8,72.1,29.70,WNW,291,1.0,13.0,77,0.03,,,0.03,WUHU216DAVISVP2,2013-06-25 23:42:00,
2013-06-25 19:47:00,78.5,71.6,29.71,WSW,250,1.8,13.0,79,0.03,,,0.03,WUHU216DAVISVP2,2013-06-25 23:47:00,
2013-06-25 19:52:00,77.7,71.1,29.71,WSW,246,2.5,13.0,80,0.03,,,0.03,WUHU216DAVISVP2,2013-06-25 23:52:00,
2013-06-25 19:57:00,77.3,71.5,29.71,West,267,2.3,7.0,82,0.03,,,0.03,WUHU216DAVISVP2,2013-06-25 23:57:00,
2013-06-25 20:02:00,76.9,71.7,29.71,West,275,2.0,7.0,84,0.03,,,0.03,WUHU216DAVISVP2,2013-06-26 00:02:00,
2013-06-25 20:07:00,76.6,72.1,29.71,West,276,1.0,7.0,86,0.03,,,0.03,WUHU216DAVISVP2,2013-06-26 00:07:00,
2013-06-25 20:12:00,76.1,72.0,29.71,WNW,292,0.0,6.0,87,0.03,,,0.03,WUHU216DAVISVP2,2013-06-26 00:12:00,
2013-06-25 20:17:00,75.9,72.4,29.71,WNW,292,1.0,5.0,89,0.03,,,0.03,WUHU216DAVISVP2,2013-06-26 00:17:00,
2013-06-25 20:22:00,75.6,72.4,29.71,WNW,291,1.0,5.0,90,0.03,,,0.03,WUHU216DAVISVP2,2013-06-26 00:22:00,
2013-06-25 20:27:00,75.1,72.3,29.71,NW,325,1.9,5.0,91,0.03,,,0.03,WUHU216DAVISVP2,2013-06-26 00:27:00,
2013-06-25 20:32:00,74.8,72.0,29.71,NW,304,1.0,4.0,91,0.03,,,0.03,WUHU216DAVISVP2,2013-06-26 00:32:00,
2013-06-25 20:37:00,74.5,72.0,29.72,NW,315,4.0,6.0,92,0.00,,,0.03,WUHU216DAVISVP2,2013-06-26 00:37:00,
2013-06-25 20:42:00,74.1,71.9,29.74,WNW,290,5.0,10.0,93,0.00,,,0.03,WUHU216DAVISVP2,2013-06-26 00:42:00,
2013-06-25 20:47:00,73.9,71.7,29.75,SW,233,4.0,10.0,93,0.03,,,0.06,WUHU216DAVISVP2,2013-06-26 00:47:00,
2013-06-25 20:52:00,73.8,71.9,29.74,ENE,58,1.8,10.0,94,0.08,,,0.11,WUHU216DAVISVP2,2013-06-26 00:52:00,
2013-06-25 20:57:00,73.8,71.9,29.74,East,89,2.0,10.0,94,0.08,,,0.11,WUHU216DAVISVP2,2013-06-26 00:57:00,
2013-06-25 21:02:00,73.5,71.6,29.74,ENE,59,1.8,8.0,94,0.09,,,0.12,WUHU216DAVISVP2,2013-06-26 01:02:00,
2013-06-25 21:07:00,73.1,71.2,29.74,NE,52,1.0,5.0,94,0.09,,,0.12,WUHU216DAVISVP2,2013-06-26 01:07:00,
2013-06-25 21:12:00,73.0,71.5,29.73,NE,54,0.0,4.0,95,0.09,,,0.12,WUHU216DAVISVP2,2013-06-26 01:12:00,
2013-06-25 21:17:00,72.6,70.7,29.73,NE,54,0.0,4.0,94,0.09,,,0.12,WUHU216DAVISVP2,2013-06-26 01:17:00,
2013-06-25 21:22:00,72.5,71.0,29.73,NE,54,1.0,1.0,95,0.09,,,0.12,WUHU216DAVISVP2,2013-06-26 01:22:00,
2013-06-25 21:27:00,72.4,70.9,29.73,NE,54,1.0,3.0,95,0.09,,,0.12,WUHU216DAVISVP2,2013-06-26 01:27:00,
2013-06-25 21:32:00,72.2,70.7,29.74,NE,54,1.0,3.0,95,0.09,,,0.12,WUHU216DAVISVP2,2013-06-26 01:32:00,
2013-06-25 21:37:00,72.1,70.6,29.74,NE,54,1.0,3.0,95,0.09,,,0.12,WUHU216DAVISVP2,2013-06-26 01:37:00,
2013-06-25 21:42:00,72.0,70.8,29.73,NE,54,1.0,3.0,96,0.09,,,0.12,WUHU216DAVISVP2,2013-06-26 01:42:00,
2013-06-25 21:47:00,71.9,70.7,29.73,NE,54,1.0,2.0,96,0.04,,,0.12,WUHU216DAVISVP2,2013-06-26 01:47:00,
2013-06-25 21:52:00,71.8,70.6,29.74,NE,54,1.4,2.0,96,0.01,,,0.12,WUHU216DAVISVP2,2013-06-26 01:52:00,
2013-06-25 21:57:00,71.6,70.4,29.74,NNW,331,1.0,4.0,96,0.01,,,0.12,WUHU216DAVISVP2,2013-06-26 01:57:00,
2013-06-25 22:02:00,71.5,70.3,29.74,NNW,333,1.4,4.0,96,0.00,,,0.12,WUHU216DAVISVP2,2013-06-26 02:02:00,
2013-06-25 22:07:00,71.4,70.2,29.73,NNW,332,1.0,4.0,96,0.00,,,0.12,WUHU216DAVISVP2,2013-06-26 02:07:00,
2013-06-25 22:12:00,71.3,70.1,29.73,NNW,332,0.0,4.0,96,0.00,,,0.12,WUHU216DAVISVP2,2013-06-26 02:12:00,
2013-06-25 22:17:00,71.3,70.1,29.73,NNW,332,0.0,3.0,96,0.00,,,0.12,WUHU216DAVISVP2,2013-06-26 02:17:00,
2013-06-25 22:22:00,71.2,70.0,29.74,NNW,332,0.0,1.0,96,0.00,,,0.12,WUHU216DAVISVP2,2013-06-26 02:22:00,
2013-06-25 22:27:00,71.2,70.0,29.73,NNW,332,0.0,1.0,96,0.00,,,0.12,WUHU216DAVISVP2,2013-06-26 02:27:00,
2013-06-25 22:32:00,71.1,70.2,29.74,NNW,332,0.0,0.0,97,0.00,,,0.12,WUHU216DAVISVP2,2013-06-26 02:32:00,
2013-06-25 22:37:00,71.2,70.3,29.74,NNW,332,0.0,0.0,97,0.00,,,0.12,WUHU216DAVISVP2,2013-06-26 02:37:00,
2013-06-25 22:42:00,71.1,70.2,29.74,NNW,332,0.0,0.0,97,0.00,,,0.12,WUHU216DAVISVP2,2013-06-26 02:42:00,
2013-06-25 22:47:00,71.1,70.2,29.74,NNW,332,0.0,0.0,97,0.00,,,0.12,WUHU216DAVISVP2,2013-06-26 02:47:00,
2013-06-25 22:52:00,71.1,70.2,29.74,NNW,332,0.0,0.0,97,0.00,,,0.12,WUHU216DAVISVP2,2013-06-26 02:52:00,
2013-06-25 22:57:00,71.0,70.1,29.74,NNW,332,0.0,0.0,97,0.00,,,0.12,WUHU216DAVISVP2,2013-06-26 02:57:00,
2013-06-25 23:02:00,70.9,70.0,29.73,NNW,332,0.0,0.0,97,0.00,,,0.12,WUHU216DAVISVP2,2013-06-26 03:02:00,
2013-06-25 23:07:00,70.8,69.9,29.73,NNW,332,0.0,0.0,97,0.00,,,0.12,WUHU216DAVISVP2,2013-06-26 03:07:00,
2013-06-25 23:12:00,70.7,69.8,29.74,NNW,332,0.0,0.0,97,0.00,,,0.12,WUHU216DAVISVP2,2013-06-26 03:12:00,
2013-06-25 23:17:00,70.6,69.7,29.74,NNW,332,0.0,0.0,97,0.00,,,0.12,WUHU216DAVISVP2,2013-06-26 03:17:00,
2013-06-25 23:22:00,70.5,69.6,29.73,NNW,332,0.0,0.0,97,0.00,,,0.12,WUHU216DAVISVP2,2013-06-26 03:22:00,
2013-06-25 23:27:00,70.5,69.6,29.73,NNW,332,0.0,0.0,97,0.00,,,0.12,WUHU216DAVISVP2,2013-06-26 03:27:00,
2013-06-25 23:32:00,70.5,69.6,29.73,NNW,332,0.0,0.0,97,0.00,,,0.12,WUHU216DAVISVP2,2013-06-26 03:32:00,
2013-06-25 23:37:00,70.4,69.5,29.72,NNW,332,0.0,0.0,97,0.00,,,0.12,WUHU216DAVISVP2,2013-06-26 03:37:00,
2013-06-25 23:42:00,70.4,69.5,29.72,NNW,332,0.0,0.0,97,0.00,,,0.12,WUHU216DAVISVP2,2013-06-26 03:42:00,
2013-06-25 23:47:00,70.3,69.4,29.72,NNW,332,0.0,0.0,97,0.00,,,0.12,WUHU216DAVISVP2,2013-06-26 03:47:00,
2013-06-25 23:52:00,70.2,69.3,29.73,NNW,332,0.0,1.0,97,0.00,,,0.12,WUHU216DAVISVP2,2013-06-26 03:52:00,
2013-06-25 23:57:00,70.1,69.2,29.73,NNW,332,0.0,1.0,97,0.00,,,0.12,WUHU216DAVISVP2,2013-06-26 03:57:00,